This is the latest recevied weather packets stored in our database for station/object RV1CJ-14. If no packets are shown the sender has not sent any weather packets the latest 1 day(s).
| Time | Temp. | Humidity | Pressure | Rain* | Wind** | Luminosity | Snow |
|---|---|---|---|---|---|---|---|
| 1777995603 | 11.67° C | 57% | 1001.4 hPa | 0 mm | 0.89 m/s, 342° | 21 W/m² | - |
| 1777995003 | 11.67° C | 59% | 1001.4 hPa | 0 mm | 0.89 m/s, 342° | 21 W/m² | - |
| 1777994403 | 12.22° C | 60% | 1001.5 hPa | 0 mm | 0.89 m/s, 342° | 23 W/m² | - |
| 1777993803 | 12.22° C | 60% | 1001.5 hPa | 0 mm | 0.89 m/s, 343° | 25 W/m² | - |
| 1777993203 | 12.22° C | 59% | 1001.4 hPa | 0 mm | 0.89 m/s, 343° | 25 W/m² | - |
| 1777992603 | 12.22° C | 57% | 1001.3 hPa | 0 mm | 0.89 m/s, 341° | 35 W/m² | - |
| 1777992003 | 12.22° C | 57% | 1001.2 hPa | 0 mm | 0.45 m/s, 341° | 37 W/m² | - |
| 1777991403 | 12.22° C | 57% | 1001.2 hPa | 0 mm | 0.45 m/s, 341° | 28 W/m² | - |
| 1777990803 | 12.22° C | 57% | 1001.1 hPa | 0 mm | 0.45 m/s, 341° | 32 W/m² | - |
| 1777990203 | 12.22° C | 57% | 1001.2 hPa | 0 mm | 0.89 m/s, 341° | 40 W/m² | - |
| 1777989603 | 12.78° C | 58% | 1001.1 hPa | 0 mm | 0.45 m/s, 341° | 42 W/m² | - |
| 1777989003 | 12.78° C | 62% | 1001 hPa | 0 mm | 0.45 m/s, 340° | 58 W/m² | - |
| 1777988403 | 12.78° C | 65% | 1000.7 hPa | 0 mm | 0.45 m/s, 340° | 33 W/m² | - |
| 1777987803 | 12.22° C | 65% | 1000.8 hPa | 0 mm | 0.45 m/s, 340° | 74 W/m² | - |
| 1777987203 | 12.22° C | 66% | 1000.7 hPa | 0 mm | 0.45 m/s, 340° | 90 W/m² | - |
| 1777986603 | 11.67° C | 68% | 1000.8 hPa | 0 mm | 0.45 m/s, 340° | 86 W/m² | - |
| 1777986003 | 11.67° C | 69% | 1000.7 hPa | 0 mm | 0.45 m/s, 340° | 107 W/m² | - |
| 1777985403 | 11.11° C | 69% | 1000.6 hPa | 0 mm | 0.45 m/s, 340° | 98 W/m² | - |
| 1777984803 | 11.67° C | 67% | 1000.6 hPa | 0 mm | 0.45 m/s, 340° | 104 W/m² | - |
| 1777984203 | 12.78° C | 65% | 1000.5 hPa | 0 mm | 0.45 m/s, 340° | 98 W/m² | - |
| 1777983603 | 13.89° C | 60% | 1000.4 hPa | 0 mm | 0.45 m/s, 339° | 81 W/m² | - |
| 1777983003 | 15° C | 55% | 1000.2 hPa | 0 mm | 0.45 m/s, 339° | 77 W/m² | - |
| 1777982403 | 16.67° C | 53% | 1000.1 hPa | 0 mm | 0.89 m/s, 341° | 83 W/m² | - |
| 1777981803 | 17.22° C | 50% | 999.7 hPa | 0 mm | 0.45 m/s, 349° | 137 W/m² | - |
| 1777981203 | 16.67° C | 50% | 999.8 hPa | 0 mm | 0.45 m/s, 113° | 111 W/m² | - |
* Rain latest hour (hover to see other rain measurements)
** Current wind speed in m/s (hover to see current wind gust speed)